sensor_id;sensor_type;location;lat;lon;timestamp;P1;durP1;ratioP1;P2;durP2;ratioP2
7917;SDS011;4004;42.624;23.386;2023-06-04T00:00:07;7.17;;;6.47;;
7917;SDS011;4004;42.624;23.386;2023-06-04T00:02:35;7.50;;;5.80;;
7917;SDS011;4004;42.624;23.386;2023-06-04T00:05:01;8.63;;;7.13;;
7917;SDS011;4004;42.624;23.386;2023-06-04T00:07:29;9.00;;;8.10;;
7917;SDS011;4004;42.624;23.386;2023-06-04T00:09:57;8.63;;;7.80;;
7917;SDS011;4004;42.624;23.386;2023-06-04T00:12:23;9.97;;;8.17;;
7917;SDS011;4004;42.624;23.386;2023-06-04T00:14:50;8.73;;;7.93;;
7917;SDS011;4004;42.624;23.386;2023-06-04T00:17:17;8.37;;;7.53;;
7917;SDS011;4004;42.624;23.386;2023-06-04T00:19:43;7.60;;;6.30;;
7917;SDS011;4004;42.624;23.386;2023-06-04T00:22:10;6.17;;;5.67;;
7917;SDS011;4004;42.624;23.386;2023-06-04T00:24:37;7.57;;;5.07;;
7917;SDS011;4004;42.624;23.386;2023-06-04T00:27:07;6.93;;;6.03;;
7917;SDS011;4004;42.624;23.386;2023-06-04T00:29:34;7.53;;;5.90;;
7917;SDS011;4004;42.624;23.386;2023-06-04T00:32:01;8.13;;;6.30;;
7917;SDS011;4004;42.624;23.386;2023-06-04T00:34:28;8.97;;;6.57;;
7917;SDS011;4004;42.624;23.386;2023-06-04T00:36:55;8.83;;;7.20;;
7917;SDS011;4004;42.624;23.386;2023-06-04T00:39:22;8.10;;;7.37;;
7917;SDS011;4004;42.624;23.386;2023-06-04T00:41:49;11.67;;;8.57;;
7917;SDS011;4004;42.624;23.386;2023-06-04T00:44:17;10.90;;;8.90;;
7917;SDS011;4004;42.624;23.386;2023-06-04T00:46:46;10.63;;;8.70;;
7917;SDS011;4004;42.624;23.386;2023-06-04T00:49:14;9.97;;;9.07;;
7917;SDS011;4004;42.624;23.386;2023-06-04T00:51:41;10.53;;;9.47;;
7917;SDS011;4004;42.624;23.386;2023-06-04T00:54:08;11.17;;;9.37;;
7917;SDS011;4004;42.624;23.386;2023-06-04T00:56:35;11.07;;;9.93;;
7917;SDS011;4004;42.624;23.386;2023-06-04T00:59:02;15.43;;;10.00;;
7917;SDS011;4004;42.624;23.386;2023-06-04T01:01:34;10.07;;;9.13;;
7917;SDS011;4004;42.624;23.386;2023-06-04T01:04:12;11.83;;;9.03;;
7917;SDS011;4004;42.624;23.386;2023-06-04T01:06:43;9.57;;;8.57;;
7917;SDS011;4004;42.624;23.386;2023-06-04T01:09:11;12.20;;;9.40;;
7917;SDS011;4004;42.624;23.386;2023-06-04T01:11:40;10.47;;;9.47;;
7917;SDS011;4004;42.624;23.386;2023-06-04T01:14:07;9.63;;;8.70;;
7917;SDS011;4004;42.624;23.386;2023-06-04T01:16:38;9.03;;;8.03;;
7917;SDS011;4004;42.624;23.386;2023-06-04T01:19:11;10.83;;;9.73;;
7917;SDS011;4004;42.624;23.386;2023-06-04T01:21:50;12.53;;;9.83;;
7917;SDS011;4004;42.624;23.386;2023-06-04T01:24:20;11.53;;;10.17;;
7917;SDS011;4004;42.624;23.386;2023-06-04T01:26:50;15.57;;;10.80;;
7917;SDS011;4004;42.624;23.386;2023-06-04T01:29:21;11.77;;;10.57;;
7917;SDS011;4004;42.624;23.386;2023-06-04T01:31:50;10.93;;;9.77;;
7917;SDS011;4004;42.624;23.386;2023-06-04T01:34:19;12.73;;;11.63;;
7917;SDS011;4004;42.624;23.386;2023-06-04T01:36:45;14.53;;;12.57;;
7917;SDS011;4004;42.624;23.386;2023-06-04T01:39:12;14.40;;;12.97;;
7917;SDS011;4004;42.624;23.386;2023-06-04T01:41:39;14.37;;;12.87;;
7917;SDS011;4004;42.624;23.386;2023-06-04T01:44:05;14.67;;;13.23;;
7917;SDS011;4004;42.624;23.386;2023-06-04T01:46:32;16.67;;;13.97;;
7917;SDS011;4004;42.624;23.386;2023-06-04T01:49:00;15.40;;;14.00;;
7917;SDS011;4004;42.624;23.386;2023-06-04T01:51:27;8.90;;;8.17;;
7917;SDS011;4004;42.624;23.386;2023-06-04T01:53:54;8.57;;;7.87;;
7917;SDS011;4004;42.624;23.386;2023-06-04T01:56:20;8.80;;;7.10;;
7917;SDS011;4004;42.624;23.386;2023-06-04T01:58:47;6.37;;;5.87;;
7917;SDS011;4004;42.624;23.386;2023-06-04T02:01:15;6.10;;;4.93;;
7917;SDS011;4004;42.624;23.386;2023-06-04T02:03:42;5.60;;;4.97;;
7917;SDS011;4004;42.624;23.386;2023-06-04T02:06:11;7.73;;;5.67;;
7917;SDS011;4004;42.624;23.386;2023-06-04T02:08:37;5.23;;;4.60;;
7917;SDS011;4004;42.624;23.386;2023-06-04T02:11:07;4.83;;;3.90;;
7917;SDS011;4004;42.624;23.386;2023-06-04T02:13:34;4.23;;;3.93;;
7917;SDS011;4004;42.624;23.386;2023-06-04T02:16:01;5.73;;;4.27;;
7917;SDS011;4004;42.624;23.386;2023-06-04T02:18:27;7.60;;;4.23;;
7917;SDS011;4004;42.624;23.386;2023-06-04T02:20:54;4.97;;;3.87;;
7917;SDS011;4004;42.624;23.386;2023-06-04T02:23:24;6.57;;;4.50;;
7917;SDS011;4004;42.624;23.386;2023-06-04T02:25:51;14.03;;;4.47;;
7917;SDS011;4004;42.624;23.386;2023-06-04T02:28:17;4.77;;;4.37;;
7917;SDS011;4004;42.624;23.386;2023-06-04T02:30:44;4.40;;;4.00;;
7917;SDS011;4004;42.624;23.386;2023-06-04T02:33:12;5.70;;;5.27;;
7917;SDS011;4004;42.624;23.386;2023-06-04T02:35:39;5.00;;;4.03;;
7917;SDS011;4004;42.624;23.386;2023-06-04T02:38:07;4.40;;;4.00;;
7917;SDS011;4004;42.624;23.386;2023-06-04T02:40:35;8.97;;;4.40;;
7917;SDS011;4004;42.624;23.386;2023-06-04T02:43:01;5.33;;;4.40;;
7917;SDS011;4004;42.624;23.386;2023-06-04T02:45:28;5.27;;;4.27;;
7917;SDS011;4004;42.624;23.386;2023-06-04T02:47:55;6.13;;;4.57;;
7917;SDS011;4004;42.624;23.386;2023-06-04T02:50:22;4.77;;;4.30;;
7917;SDS011;4004;42.624;23.386;2023-06-04T02:52:49;5.73;;;4.63;;
7917;SDS011;4004;42.624;23.386;2023-06-04T02:55:16;5.90;;;4.53;;
7917;SDS011;4004;42.624;23.386;2023-06-04T02:57:44;4.63;;;4.20;;
7917;SDS011;4004;42.624;23.386;2023-06-04T03:00:11;4.67;;;4.20;;
7917;SDS011;4004;42.624;23.386;2023-06-04T03:02:40;4.37;;;3.97;;
7917;SDS011;4004;42.624;23.386;2023-06-04T03:05:08;4.60;;;4.20;;
7917;SDS011;4004;42.624;23.386;2023-06-04T03:07:35;9.50;;;3.90;;
7917;SDS011;4004;42.624;23.386;2023-06-04T03:10:02;3.73;;;3.43;;
7917;SDS011;4004;42.624;23.386;2023-06-04T03:12:30;4.13;;;3.47;;
7917;SDS011;4004;42.624;23.386;2023-06-04T03:14:58;5.17;;;3.17;;
7917;SDS011;4004;42.624;23.386;2023-06-04T03:17:25;4.77;;;3.87;;
7917;SDS011;4004;42.624;23.386;2023-06-04T03:19:52;3.77;;;3.30;;
7917;SDS011;4004;42.624;23.386;2023-06-04T03:22:21;5.33;;;4.00;;
7917;SDS011;4004;42.624;23.386;2023-06-04T03:24:48;4.00;;;3.70;;
7917;SDS011;4004;42.624;23.386;2023-06-04T03:27:15;4.23;;;3.73;;
7917;SDS011;4004;42.624;23.386;2023-06-04T03:29:41;4.30;;;3.63;;
7917;SDS011;4004;42.624;23.386;2023-06-04T03:32:10;4.17;;;3.77;;
7917;SDS011;4004;42.624;23.386;2023-06-04T03:34:37;4.33;;;3.77;;
7917;SDS011;4004;42.624;23.386;2023-06-04T03:37:04;4.17;;;3.77;;
7917;SDS011;4004;42.624;23.386;2023-06-04T03:39:31;4.10;;;3.80;;
7917;SDS011;4004;42.624;23.386;2023-06-04T03:41:57;6.03;;;3.90;;
7917;SDS011;4004;42.624;23.386;2023-06-04T03:44:24;4.50;;;4.10;;
7917;SDS011;4004;42.624;23.386;2023-06-04T03:46:51;5.57;;;4.03;;
7917;SDS011;4004;42.624;23.386;2023-06-04T03:49:19;4.47;;;4.10;;
7917;SDS011;4004;42.624;23.386;2023-06-04T03:51:47;4.20;;;3.80;;
7917;SDS011;4004;42.624;23.386;2023-06-04T03:54:14;5.37;;;4.47;;
7917;SDS011;4004;42.624;23.386;2023-06-04T03:56:42;7.03;;;4.00;;
7917;SDS011;4004;42.624;23.386;2023-06-04T03:59:10;4.77;;;4.00;;
7917;SDS011;4004;42.624;23.386;2023-06-04T04:01:37;4.53;;;4.00;;
7917;SDS011;4004;42.624;23.386;2023-06-04T04:04:04;3.83;;;3.43;;
7917;SDS011;4004;42.624;23.386;2023-06-04T04:06:32;5.00;;;3.70;;
7917;SDS011;4004;42.624;23.386;2023-06-04T04:08:59;4.80;;;4.17;;
7917;SDS011;4004;42.624;23.386;2023-06-04T04:11:25;5.03;;;3.97;;
7917;SDS011;4004;42.624;23.386;2023-06-04T04:13:52;4.90;;;3.93;;
7917;SDS011;4004;42.624;23.386;2023-06-04T04:16:19;5.20;;;3.47;;
7917;SDS011;4004;42.624;23.386;2023-06-04T04:18:46;4.77;;;3.57;;
7917;SDS011;4004;42.624;23.386;2023-06-04T04:21:13;5.37;;;4.10;;
7917;SDS011;4004;42.624;23.386;2023-06-04T04:23:41;3.80;;;3.50;;
7917;SDS011;4004;42.624;23.386;2023-06-04T04:26:08;4.40;;;4.00;;
7917;SDS011;4004;42.624;23.386;2023-06-04T04:28:35;4.10;;;3.80;;
7917;SDS011;4004;42.624;23.386;2023-06-04T04:31:02;4.80;;;4.33;;
7917;SDS011;4004;42.624;23.386;2023-06-04T04:33:28;6.40;;;4.00;;
7917;SDS011;4004;42.624;23.386;2023-06-04T04:35:57;4.57;;;4.10;;
7917;SDS011;4004;42.624;23.386;2023-06-04T04:38:25;4.60;;;4.20;;
7917;SDS011;4004;42.624;23.386;2023-06-04T04:40:55;5.23;;;4.47;;
7917;SDS011;4004;42.624;23.386;2023-06-04T04:43:32;8.37;;;4.30;;
7917;SDS011;4004;42.624;23.386;2023-06-04T04:45:59;4.40;;;4.10;;
7917;SDS011;4004;42.624;23.386;2023-06-04T04:48:26;5.17;;;3.97;;
7917;SDS011;4004;42.624;23.386;2023-06-04T04:50:53;5.60;;;4.43;;
7917;SDS011;4004;42.624;23.386;2023-06-04T04:53:20;5.03;;;4.10;;
7917;SDS011;4004;42.624;23.386;2023-06-04T04:55:47;8.17;;;4.30;;
7917;SDS011;4004;42.624;23.386;2023-06-04T04:58:16;5.90;;;4.47;;
7917;SDS011;4004;42.624;23.386;2023-06-04T05:00:43;8.13;;;4.63;;
7917;SDS011;4004;42.624;23.386;2023-06-04T05:03:10;9.63;;;6.43;;
7917;SDS011;4004;42.624;23.386;2023-06-04T05:05:37;10.90;;;5.33;;
7917;SDS011;4004;42.624;23.386;2023-06-04T05:08:04;4.93;;;4.43;;
7917;SDS011;4004;42.624;23.386;2023-06-04T05:10:31;5.20;;;4.70;;
7917;SDS011;4004;42.624;23.386;2023-06-04T05:12:58;8.83;;;5.33;;
7917;SDS011;4004;42.624;23.386;2023-06-04T05:15:27;6.63;;;5.00;;
7917;SDS011;4004;42.624;23.386;2023-06-04T05:17:54;5.47;;;4.97;;
7917;SDS011;4004;42.624;23.386;2023-06-04T05:20:21;6.43;;;5.47;;
7917;SDS011;4004;42.624;23.386;2023-06-04T05:22:48;5.37;;;4.97;;
7917;SDS011;4004;42.624;23.386;2023-06-04T05:25:16;5.50;;;5.00;;
7917;SDS011;4004;42.624;23.386;2023-06-04T05:27:43;8.07;;;5.33;;
7917;SDS011;4004;42.624;23.386;2023-06-04T05:30:10;10.13;;;5.40;;
7917;SDS011;4004;42.624;23.386;2023-06-04T05:32:39;6.20;;;5.37;;
7917;SDS011;4004;42.624;23.386;2023-06-04T05:35:06;8.67;;;6.03;;
7917;SDS011;4004;42.624;23.386;2023-06-04T05:37:34;7.07;;;5.77;;
7917;SDS011;4004;42.624;23.386;2023-06-04T05:40:03;6.70;;;5.50;;
7917;SDS011;4004;42.624;23.386;2023-06-04T05:42:32;12.60;;;5.93;;
7917;SDS011;4004;42.624;23.386;2023-06-04T05:44:58;7.57;;;6.27;;
7917;SDS011;4004;42.624;23.386;2023-06-04T05:47:26;10.73;;;6.40;;
7917;SDS011;4004;42.624;23.386;2023-06-04T05:49:56;7.57;;;6.33;;
7917;SDS011;4004;42.624;23.386;2023-06-04T05:52:23;8.57;;;6.30;;
7917;SDS011;4004;42.624;23.386;2023-06-04T05:54:50;9.60;;;6.90;;
7917;SDS011;4004;42.624;23.386;2023-06-04T05:57:16;7.83;;;7.13;;
7917;SDS011;4004;42.624;23.386;2023-06-04T05:59:43;7.40;;;5.93;;
7917;SDS011;4004;42.624;23.386;2023-06-04T06:02:10;8.77;;;5.60;;
7917;SDS011;4004;42.624;23.386;2023-06-04T06:04:37;9.47;;;6.60;;
7917;SDS011;4004;42.624;23.386;2023-06-04T06:07:05;9.20;;;6.43;;
7917;SDS011;4004;42.624;23.386;2023-06-04T06:09:32;8.13;;;6.23;;
7917;SDS011;4004;42.624;23.386;2023-06-04T06:12:00;7.80;;;5.63;;
7917;SDS011;4004;42.624;23.386;2023-06-04T06:14:27;7.50;;;6.57;;
7917;SDS011;4004;42.624;23.386;2023-06-04T06:16:54;8.13;;;5.50;;
7917;SDS011;4004;42.624;23.386;2023-06-04T06:19:21;6.23;;;5.50;;
7917;SDS011;4004;42.624;23.386;2023-06-04T06:21:48;6.53;;;5.93;;
7917;SDS011;4004;42.624;23.386;2023-06-04T06:24:16;7.27;;;5.90;;
7917;SDS011;4004;42.624;23.386;2023-06-04T06:26:43;7.10;;;6.03;;
7917;SDS011;4004;42.624;23.386;2023-06-04T06:29:09;6.23;;;5.60;;
7917;SDS011;4004;42.624;23.386;2023-06-04T06:31:36;8.40;;;6.00;;
7917;SDS011;4004;42.624;23.386;2023-06-04T06:34:03;7.27;;;5.90;;
7917;SDS011;4004;42.624;23.386;2023-06-04T06:36:30;6.77;;;5.50;;
7917;SDS011;4004;42.624;23.386;2023-06-04T06:38:57;8.87;;;6.10;;
7917;SDS011;4004;42.624;23.386;2023-06-04T06:41:26;6.93;;;5.97;;
7917;SDS011;4004;42.624;23.386;2023-06-04T06:43:53;6.33;;;5.73;;
7917;SDS011;4004;42.624;23.386;2023-06-04T06:46:19;9.00;;;5.77;;
7917;SDS011;4004;42.624;23.386;2023-06-04T06:48:46;7.60;;;5.50;;
7917;SDS011;4004;42.624;23.386;2023-06-04T06:51:13;8.37;;;6.10;;
7917;SDS011;4004;42.624;23.386;2023-06-04T06:53:40;8.10;;;5.80;;
7917;SDS011;4004;42.624;23.386;2023-06-04T06:56:07;6.57;;;5.33;;
7917;SDS011;4004;42.624;23.386;2023-06-04T06:58:35;6.27;;;5.40;;
7917;SDS011;4004;42.624;23.386;2023-06-04T07:01:02;6.03;;;5.43;;
7917;SDS011;4004;42.624;23.386;2023-06-04T07:03:29;6.47;;;5.50;;
7917;SDS011;4004;42.624;23.386;2023-06-04T07:05:56;6.43;;;5.63;;
7917;SDS011;4004;42.624;23.386;2023-06-04T07:08:23;7.13;;;5.37;;
7917;SDS011;4004;42.624;23.386;2023-06-04T07:10:49;5.90;;;5.20;;
7917;SDS011;4004;42.624;23.386;2023-06-04T07:13:16;11.70;;;8.97;;
7917;SDS011;4004;42.624;23.386;2023-06-04T07:15:44;7.87;;;5.90;;
7917;SDS011;4004;42.624;23.386;2023-06-04T07:18:11;7.33;;;5.73;;
7917;SDS011;4004;42.624;23.386;2023-06-04T07:20:38;8.37;;;5.57;;
7917;SDS011;4004;42.624;23.386;2023-06-04T07:23:05;9.10;;;5.77;;
7917;SDS011;4004;42.624;23.386;2023-06-04T07:25:32;10.93;;;6.87;;
7917;SDS011;4004;42.624;23.386;2023-06-04T07:27:59;10.53;;;5.23;;
7917;SDS011;4004;42.624;23.386;2023-06-04T07:30:29;11.00;;;6.93;;
7917;SDS011;4004;42.624;23.386;2023-06-04T07:32:57;8.43;;;6.17;;
7917;SDS011;4004;42.624;23.386;2023-06-04T07:35:24;8.07;;;6.23;;
7917;SDS011;4004;42.624;23.386;2023-06-04T07:37:51;6.50;;;5.90;;
7917;SDS011;4004;42.624;23.386;2023-06-04T07:40:17;7.90;;;6.57;;
7917;SDS011;4004;42.624;23.386;2023-06-04T07:42:45;7.60;;;6.80;;
7917;SDS011;4004;42.624;23.386;2023-06-04T07:45:12;10.37;;;7.77;;
7917;SDS011;4004;42.624;23.386;2023-06-04T07:47:38;7.30;;;6.60;;
7917;SDS011;4004;42.624;23.386;2023-06-04T07:50:07;11.50;;;6.43;;
7917;SDS011;4004;42.624;23.386;2023-06-04T07:52:34;9.57;;;6.60;;
7917;SDS011;4004;42.624;23.386;2023-06-04T07:55:01;9.67;;;7.53;;
7917;SDS011;4004;42.624;23.386;2023-06-04T07:57:30;9.40;;;7.40;;
7917;SDS011;4004;42.624;23.386;2023-06-04T07:59:56;12.03;;;7.20;;
7917;SDS011;4004;42.624;23.386;2023-06-04T08:02:24;7.13;;;6.43;;
7917;SDS011;4004;42.624;23.386;2023-06-04T08:04:51;8.00;;;6.70;;
7917;SDS011;4004;42.624;23.386;2023-06-04T08:07:19;6.87;;;6.20;;
7917;SDS011;4004;42.624;23.386;2023-06-04T08:09:46;7.33;;;6.53;;
7917;SDS011;4004;42.624;23.386;2023-06-04T08:12:12;10.70;;;9.60;;
7917;SDS011;4004;42.624;23.386;2023-06-04T08:14:41;8.10;;;6.57;;
7917;SDS011;4004;42.624;23.386;2023-06-04T08:17:08;10.93;;;7.60;;
7917;SDS011;4004;42.624;23.386;2023-06-04T08:19:34;9.67;;;6.60;;
7917;SDS011;4004;42.624;23.386;2023-06-04T08:22:01;8.47;;;7.30;;
7917;SDS011;4004;42.624;23.386;2023-06-04T08:24:30;11.93;;;6.87;;
7917;SDS011;4004;42.624;23.386;2023-06-04T08:26:57;10.13;;;9.10;;
7917;SDS011;4004;42.624;23.386;2023-06-04T08:29:23;11.03;;;9.17;;
7917;SDS011;4004;42.624;23.386;2023-06-04T08:31:50;11.57;;;9.17;;
7917;SDS011;4004;42.624;23.386;2023-06-04T08:34:17;9.40;;;8.40;;
7917;SDS011;4004;42.624;23.386;2023-06-04T08:36:44;11.57;;;8.83;;
7917;SDS011;4004;42.624;23.386;2023-06-04T08:39:11;9.47;;;8.47;;
7917;SDS011;4004;42.624;23.386;2023-06-04T08:41:43;8.27;;;7.47;;
7917;SDS011;4004;42.624;23.386;2023-06-04T08:44:11;9.53;;;7.90;;
7917;SDS011;4004;42.624;23.386;2023-06-04T08:46:38;9.37;;;7.20;;
7917;SDS011;4004;42.624;23.386;2023-06-04T08:49:06;9.97;;;7.33;;
7917;SDS011;4004;42.624;23.386;2023-06-04T08:51:34;13.87;;;11.63;;
7917;SDS011;4004;42.624;23.386;2023-06-04T08:54:03;7.40;;;6.00;;
7917;SDS011;4004;42.624;23.386;2023-06-04T08:56:30;6.53;;;5.93;;
7917;SDS011;4004;42.624;23.386;2023-06-04T08:59:00;8.87;;;6.40;;
7917;SDS011;4004;42.624;23.386;2023-06-04T09:01:28;8.87;;;6.30;;
7917;SDS011;4004;42.624;23.386;2023-06-04T09:03:57;7.47;;;6.60;;
7917;SDS011;4004;42.624;23.386;2023-06-04T09:06:25;7.00;;;6.23;;
7917;SDS011;4004;42.624;23.386;2023-06-04T09:08:52;8.53;;;6.43;;
7917;SDS011;4004;42.624;23.386;2023-06-04T09:11:23;8.32;;;6.60;;
7917;SDS011;4004;42.624;23.386;2023-06-04T09:13:53;7.53;;;6.23;;
7917;SDS011;4004;42.624;23.386;2023-06-04T09:16:25;7.00;;;6.30;;
7917;SDS011;4004;42.624;23.386;2023-06-04T09:18:52;9.40;;;7.10;;
7917;SDS011;4004;42.624;23.386;2023-06-04T09:21:19;13.77;;;9.00;;
7917;SDS011;4004;42.624;23.386;2023-06-04T09:23:46;7.53;;;6.43;;
7917;SDS011;4004;42.624;23.386;2023-06-04T09:26:14;8.80;;;7.23;;
7917;SDS011;4004;42.624;23.386;2023-06-04T09:28:41;10.63;;;8.03;;
7917;SDS011;4004;42.624;23.386;2023-06-04T09:31:08;10.33;;;7.57;;
7917;SDS011;4004;42.624;23.386;2023-06-04T09:33:43;9.37;;;7.47;;
7917;SDS011;4004;42.624;23.386;2023-06-04T09:36:11;9.77;;;7.73;;
7917;SDS011;4004;42.624;23.386;2023-06-04T09:38:38;9.50;;;8.50;;
7917;SDS011;4004;42.624;23.386;2023-06-04T09:41:10;8.40;;;7.60;;
7917;SDS011;4004;42.624;23.386;2023-06-04T09:43:38;8.93;;;8.03;;
7917;SDS011;4004;42.624;23.386;2023-06-04T09:46:08;8.17;;;7.37;;
7917;SDS011;4004;42.624;23.386;2023-06-04T09:48:37;8.17;;;6.80;;
7917;SDS011;4004;42.624;23.386;2023-06-04T09:51:09;9.23;;;7.47;;
7917;SDS011;4004;42.624;23.386;2023-06-04T09:53:36;11.80;;;7.43;;
7917;SDS011;4004;42.624;23.386;2023-06-04T09:56:04;14.43;;;7.70;;
7917;SDS011;4004;42.624;23.386;2023-06-04T09:58:33;8.30;;;7.50;;
7917;SDS011;4004;42.624;23.386;2023-06-04T10:01:00;12.97;;;7.07;;
7917;SDS011;4004;42.624;23.386;2023-06-04T10:03:32;7.97;;;5.90;;
7917;SDS011;4004;42.624;23.386;2023-06-04T10:06:01;8.33;;;6.60;;
7917;SDS011;4004;42.624;23.386;2023-06-04T10:08:31;10.37;;;7.20;;
7917;SDS011;4004;42.624;23.386;2023-06-04T10:10:59;10.33;;;6.63;;
7917;SDS011;4004;42.624;23.386;2023-06-04T10:13:28;9.33;;;6.93;;
7917;SDS011;4004;42.624;23.386;2023-06-04T10:15:57;8.47;;;6.70;;
7917;SDS011;4004;42.624;23.386;2023-06-04T10:18:24;8.67;;;6.90;;
7917;SDS011;4004;42.624;23.386;2023-06-04T10:20:54;20.10;;;16.90;;
7917;SDS011;4004;42.624;23.386;2023-06-04T10:23:22;7.33;;;6.47;;
7917;SDS011;4004;42.624;23.386;2023-06-04T10:25:51;9.63;;;6.73;;
7917;SDS011;4004;42.624;23.386;2023-06-04T10:28:19;8.23;;;6.47;;
7917;SDS011;4004;42.624;23.386;2023-06-04T10:30:47;14.20;;;6.87;;
7917;SDS011;4004;42.624;23.386;2023-06-04T10:33:15;7.23;;;6.43;;
7917;SDS011;4004;42.624;23.386;2023-06-04T10:35:45;8.73;;;7.27;;
7917;SDS011;4004;42.624;23.386;2023-06-04T10:38:12;9.17;;;6.13;;
7917;SDS011;4004;42.624;23.386;2023-06-04T10:40:41;8.97;;;6.87;;
7917;SDS011;4004;42.624;23.386;2023-06-04T10:43:10;7.43;;;6.27;;
7917;SDS011;4004;42.624;23.386;2023-06-04T10:45:38;7.00;;;6.27;;
7917;SDS011;4004;42.624;23.386;2023-06-04T10:48:06;7.47;;;6.30;;
7917;SDS011;4004;42.624;23.386;2023-06-04T10:50:34;10.47;;;7.07;;
7917;SDS011;4004;42.624;23.386;2023-06-04T10:53:13;10.03;;;6.47;;
7917;SDS011;4004;42.624;23.386;2023-06-04T10:55:43;10.67;;;6.70;;
7917;SDS011;4004;42.624;23.386;2023-06-04T10:58:12;8.43;;;6.23;;
7917;SDS011;4004;42.624;23.386;2023-06-04T11:00:39;8.83;;;7.23;;
7917;SDS011;4004;42.624;23.386;2023-06-04T11:03:09;7.93;;;7.13;;
7917;SDS011;4004;42.624;23.386;2023-06-04T11:05:37;11.53;;;7.47;;
7917;SDS011;4004;42.624;23.386;2023-06-04T11:08:05;9.77;;;6.90;;
7917;SDS011;4004;42.624;23.386;2023-06-04T11:10:34;7.83;;;6.97;;
7917;SDS011;4004;42.624;23.386;2023-06-04T11:13:01;7.87;;;7.07;;
7917;SDS011;4004;42.624;23.386;2023-06-04T11:15:41;7.87;;;6.77;;
7917;SDS011;4004;42.624;23.386;2023-06-04T11:18:13;7.73;;;6.33;;
7917;SDS011;4004;42.624;23.386;2023-06-04T11:20:40;7.97;;;6.67;;
7917;SDS011;4004;42.624;23.386;2023-06-04T11:23:08;10.70;;;6.73;;
7917;SDS011;4004;42.624;23.386;2023-06-04T11:25:35;8.60;;;7.43;;
7917;SDS011;4004;42.624;23.386;2023-06-04T11:28:01;6.87;;;6.17;;
7917;SDS011;4004;42.624;23.386;2023-06-04T11:30:28;10.90;;;6.83;;
7917;SDS011;4004;42.624;23.386;2023-06-04T11:33:03;8.10;;;7.20;;
7917;SDS011;4004;42.624;23.386;2023-06-04T11:35:38;8.90;;;8.10;;
7917;SDS011;4004;42.624;23.386;2023-06-04T11:38:06;7.27;;;6.63;;
7917;SDS011;4004;42.624;23.386;2023-06-04T11:40:33;7.30;;;6.60;;
7917;SDS011;4004;42.624;23.386;2023-06-04T11:43:00;10.63;;;7.43;;
7917;SDS011;4004;42.624;23.386;2023-06-04T11:45:28;9.47;;;6.63;;
7917;SDS011;4004;42.624;23.386;2023-06-04T11:47:55;7.40;;;6.80;;
7917;SDS011;4004;42.624;23.386;2023-06-04T11:50:26;11.70;;;7.00;;
7917;SDS011;4004;42.624;23.386;2023-06-04T11:52:54;8.20;;;7.13;;
7917;SDS011;4004;42.624;23.386;2023-06-04T11:55:21;8.77;;;7.40;;
7917;SDS011;4004;42.624;23.386;2023-06-04T11:57:49;8.97;;;7.20;;
7917;SDS011;4004;42.624;23.386;2023-06-04T12:00:17;7.70;;;7.03;;
7917;SDS011;4004;42.624;23.386;2023-06-04T12:02:49;8.57;;;7.77;;
7917;SDS011;4004;42.624;23.386;2023-06-04T12:05:18;8.20;;;7.40;;
7917;SDS011;4004;42.624;23.386;2023-06-04T12:07:49;9.67;;;7.37;;
7917;SDS011;4004;42.624;23.386;2023-06-04T12:10:16;9.40;;;7.73;;
7917;SDS011;4004;42.624;23.386;2023-06-04T12:12:44;8.30;;;7.00;;
7917;SDS011;4004;42.624;23.386;2023-06-04T12:15:10;8.70;;;7.53;;
7917;SDS011;4004;42.624;23.386;2023-06-04T12:17:48;10.23;;;7.73;;
7917;SDS011;4004;42.624;23.386;2023-06-04T12:20:16;7.73;;;7.00;;
7917;SDS011;4004;42.624;23.386;2023-06-04T12:22:46;8.10;;;7.30;;
7917;SDS011;4004;42.624;23.386;2023-06-04T12:25:24;8.40;;;6.90;;
7917;SDS011;4004;42.624;23.386;2023-06-04T12:27:52;8.97;;;7.00;;
7917;SDS011;4004;42.624;23.386;2023-06-04T12:30:19;11.40;;;7.03;;
7917;SDS011;4004;42.624;23.386;2023-06-04T12:32:46;9.07;;;7.23;;
7917;SDS011;4004;42.624;23.386;2023-06-04T12:35:14;8.23;;;6.87;;
7917;SDS011;4004;42.624;23.386;2023-06-04T12:37:41;8.53;;;7.33;;
7917;SDS011;4004;42.624;23.386;2023-06-04T12:40:08;8.23;;;7.53;;
7917;SDS011;4004;42.624;23.386;2023-06-04T12:42:36;9.70;;;7.40;;
7917;SDS011;4004;42.624;23.386;2023-06-04T12:45:03;8.17;;;7.43;;
7917;SDS011;4004;42.624;23.386;2023-06-04T12:47:31;8.53;;;7.37;;
7917;SDS011;4004;42.624;23.386;2023-06-04T12:49:58;7.80;;;7.10;;
7917;SDS011;4004;42.624;23.386;2023-06-04T12:52:25;9.40;;;6.70;;
7917;SDS011;4004;42.624;23.386;2023-06-04T12:54:52;8.17;;;7.37;;
7917;SDS011;4004;42.624;23.386;2023-06-04T12:57:19;7.60;;;6.87;;
7917;SDS011;4004;42.624;23.386;2023-06-04T12:59:47;7.93;;;7.00;;
7917;SDS011;4004;42.624;23.386;2023-06-04T13:02:14;6.87;;;6.23;;
7917;SDS011;4004;42.624;23.386;2023-06-04T13:04:40;9.43;;;6.40;;
7917;SDS011;4004;42.624;23.386;2023-06-04T13:07:09;9.27;;;5.87;;
7917;SDS011;4004;42.624;23.386;2023-06-04T13:09:36;8.57;;;6.83;;
7917;SDS011;4004;42.624;23.386;2023-06-04T13:12:03;7.60;;;7.00;;
7917;SDS011;4004;42.624;23.386;2023-06-04T13:14:31;10.13;;;7.33;;
7917;SDS011;4004;42.624;23.386;2023-06-04T13:17:00;8.23;;;7.13;;
7917;SDS011;4004;42.624;23.386;2023-06-04T13:19:27;8.10;;;6.80;;
7917;SDS011;4004;42.624;23.386;2023-06-04T13:21:53;7.93;;;6.83;;
7917;SDS011;4004;42.624;23.386;2023-06-04T13:24:22;7.67;;;6.80;;
7917;SDS011;4004;42.624;23.386;2023-06-04T13:26:49;8.53;;;6.33;;
7917;SDS011;4004;42.624;23.386;2023-06-04T13:29:15;8.83;;;6.97;;
7917;SDS011;4004;42.624;23.386;2023-06-04T13:31:46;7.60;;;6.90;;
7917;SDS011;4004;42.624;23.386;2023-06-04T13:34:14;7.03;;;6.50;;
7917;SDS011;4004;42.624;23.386;2023-06-04T13:36:41;9.00;;;7.60;;
7917;SDS011;4004;42.624;23.386;2023-06-04T13:39:08;7.60;;;6.80;;
7917;SDS011;4004;42.624;23.386;2023-06-04T13:41:34;8.43;;;6.67;;
7917;SDS011;4004;42.624;23.386;2023-06-04T13:44:01;7.80;;;6.07;;
7917;SDS011;4004;42.624;23.386;2023-06-04T13:46:28;7.43;;;6.43;;
7917;SDS011;4004;42.624;23.386;2023-06-04T13:48:55;8.33;;;6.30;;
7917;SDS011;4004;42.624;23.386;2023-06-04T13:51:23;7.90;;;7.10;;
7917;SDS011;4004;42.624;23.386;2023-06-04T13:53:50;7.20;;;6.40;;
7917;SDS011;4004;42.624;23.386;2023-06-04T13:56:18;8.83;;;7.03;;
7917;SDS011;4004;42.624;23.386;2023-06-04T13:58:45;14.03;;;12.60;;
7917;SDS011;4004;42.624;23.386;2023-06-04T14:01:12;10.67;;;7.00;;
7917;SDS011;4004;42.624;23.386;2023-06-04T14:03:38;7.03;;;6.43;;
7917;SDS011;4004;42.624;23.386;2023-06-04T14:06:05;7.60;;;6.80;;
7917;SDS011;4004;42.624;23.386;2023-06-04T14:08:33;8.27;;;6.73;;
7917;SDS011;4004;42.624;23.386;2023-06-04T14:11:00;7.63;;;6.47;;
7917;SDS011;4004;42.624;23.386;2023-06-04T14:13:27;7.23;;;5.83;;
7917;SDS011;4004;42.624;23.386;2023-06-04T14:15:53;6.90;;;6.20;;
7917;SDS011;4004;42.624;23.386;2023-06-04T14:18:20;7.40;;;6.07;;
7917;SDS011;4004;42.624;23.386;2023-06-04T14:20:47;9.57;;;6.43;;
7917;SDS011;4004;42.624;23.386;2023-06-04T14:23:14;8.13;;;6.23;;
7917;SDS011;4004;42.624;23.386;2023-06-04T14:25:43;8.07;;;6.40;;
7917;SDS011;4004;42.624;23.386;2023-06-04T14:28:09;7.20;;;6.50;;
7917;SDS011;4004;42.624;23.386;2023-06-04T14:30:36;6.90;;;6.10;;
7917;SDS011;4004;42.624;23.386;2023-06-04T14:33:03;6.90;;;6.30;;
7917;SDS011;4004;42.624;23.386;2023-06-04T14:35:30;7.13;;;6.53;;
7917;SDS011;4004;42.624;23.386;2023-06-04T14:37:56;9.73;;;5.87;;
7917;SDS011;4004;42.624;23.386;2023-06-04T14:40:23;7.53;;;6.73;;
7917;SDS011;4004;42.624;23.386;2023-06-04T14:42:51;7.37;;;5.77;;
7917;SDS011;4004;42.624;23.386;2023-06-04T14:45:18;5.97;;;5.43;;
7917;SDS011;4004;42.624;23.386;2023-06-04T14:47:45;5.93;;;5.40;;
7917;SDS011;4004;42.624;23.386;2023-06-04T14:50:12;6.27;;;5.67;;
7917;SDS011;4004;42.624;23.386;2023-06-04T14:52:39;8.43;;;5.77;;
7917;SDS011;4004;42.624;23.386;2023-06-04T14:55:06;6.47;;;5.87;;
7917;SDS011;4004;42.624;23.386;2023-06-04T14:57:33;7.47;;;5.83;;
7917;SDS011;4004;42.624;23.386;2023-06-04T15:00:01;6.37;;;5.77;;